sensor_id;sensor_type;location;lat;lon;timestamp;temperature;humidity
31084;DHT22;36333;51.382;0.016;2022-12-18T00:00:04;1.50;99.90
31084;DHT22;36333;51.382;0.016;2022-12-18T00:02:39;-0.80;99.90
31084;DHT22;36333;51.382;0.016;2022-12-18T00:05:08;1.20;99.90
31084;DHT22;36333;51.382;0.016;2022-12-18T00:07:38;-0.70;99.90
31084;DHT22;36333;51.382;0.016;2022-12-18T00:10:06;1.70;99.90
31084;DHT22;36333;51.382;0.016;2022-12-18T00:12:37;-0.90;99.90
31084;DHT22;36333;51.382;0.016;2022-12-18T00:15:05;-1.80;99.90
31084;DHT22;36333;51.382;0.016;2022-12-18T00:17:33;-0.90;99.90
31084;DHT22;36333;51.382;0.016;2022-12-18T00:20:01;-1.20;99.90
31084;DHT22;36333;51.382;0.016;2022-12-18T00:22:28;-0.70;99.90
31084;DHT22;36333;51.382;0.016;2022-12-18T00:24:56;1.10;99.90
31084;DHT22;36333;51.382;0.016;2022-12-18T00:27:24;-1.00;99.90
31084;DHT22;36333;51.382;0.016;2022-12-18T00:29:52;-1.00;99.90
31084;DHT22;36333;51.382;0.016;2022-12-18T00:32:22;-1.00;99.90
31084;DHT22;36333;51.382;0.016;2022-12-18T00:34:49;0.90;99.90
31084;DHT22;36333;51.382;0.016;2022-12-18T00:37:17;-1.10;99.90
31084;DHT22;36333;51.382;0.016;2022-12-18T00:39:53;1.20;99.90
31084;DHT22;36333;51.382;0.016;2022-12-18T00:42:21;-1.70;99.90
31084;DHT22;36333;51.382;0.016;2022-12-18T00:45:07;1.30;99.90
31084;DHT22;36333;51.382;0.016;2022-12-18T00:47:39;-1.20;99.90
31084;DHT22;36333;51.382;0.016;2022-12-18T00:50:07;0.90;99.90
31084;DHT22;36333;51.382;0.016;2022-12-18T00:52:35;-1.30;99.90
31084;DHT22;36333;51.382;0.016;2022-12-18T00:55:03;-1.30;99.90
31084;DHT22;36333;51.382;0.016;2022-12-18T00:57:33;-1.30;99.90
31084;DHT22;36333;51.382;0.016;2022-12-18T01:00:00;0.80;99.90
31084;DHT22;36333;51.382;0.016;2022-12-18T01:02:29;-1.40;99.90
31084;DHT22;36333;51.382;0.016;2022-12-18T01:04:56;-1.50;99.90
31084;DHT22;36333;51.382;0.016;2022-12-18T01:07:24;-1.70;99.90
31084;DHT22;36333;51.382;0.016;2022-12-18T01:09:52;-1.70;99.90
31084;DHT22;36333;51.382;0.016;2022-12-18T01:12:20;0.50;99.90
31084;DHT22;36333;51.382;0.016;2022-12-18T01:14:50;0.10;99.90
31084;DHT22;36333;51.382;0.016;2022-12-18T01:17:17;0.50;99.90
31084;DHT22;36333;51.382;0.016;2022-12-18T01:19:45;-1.60;99.90
31084;DHT22;36333;51.382;0.016;2022-12-18T01:22:13;-1.60;99.90
31084;DHT22;36333;51.382;0.016;2022-12-18T01:24:41;-1.70;99.90
31084;DHT22;36333;51.382;0.016;2022-12-18T01:27:08;-0.80;99.90
31084;DHT22;36333;51.382;0.016;2022-12-18T01:29:36;-1.70;99.90
31084;DHT22;36333;51.382;0.016;2022-12-18T01:32:04;-0.50;99.90
31084;DHT22;36333;51.382;0.016;2022-12-18T01:34:40;-1.60;99.90
31084;DHT22;36333;51.382;0.016;2022-12-18T01:37:12;-1.70;99.90
31084;DHT22;36333;51.382;0.016;2022-12-18T01:39:39;-2.80;99.90
31084;DHT22;36333;51.382;0.016;2022-12-18T01:42:17;-1.70;99.90
31084;DHT22;36333;51.382;0.016;2022-12-18T01:47:46;-1.40;99.90
31084;DHT22;36333;51.382;0.016;2022-12-18T01:52:56;0.70;99.90
31084;DHT22;36333;51.382;0.016;2022-12-18T01:55:28;-1.30;99.90
31084;DHT22;36333;51.382;0.016;2022-12-18T01:57:58;0.50;99.90
31084;DHT22;36333;51.382;0.016;2022-12-18T02:00:28;1.20;99.90
31084;DHT22;36333;51.382;0.016;2022-12-18T02:02:56;0.70;99.90
31084;DHT22;36333;51.382;0.016;2022-12-18T02:08:25;-1.40;99.90
31084;DHT22;36333;51.382;0.016;2022-12-18T02:10:56;-1.50;99.90
31084;DHT22;36333;51.382;0.016;2022-12-18T02:14:00;-0.70;99.90
31084;DHT22;36333;51.382;0.016;2022-12-18T02:16:41;1.10;99.90
31084;DHT22;36333;51.382;0.016;2022-12-18T02:19:50;1.10;99.90
31084;DHT22;36333;51.382;0.016;2022-12-18T02:28:04;-1.30;99.90
31084;DHT22;36333;51.382;0.016;2022-12-18T02:30:35;1.10;99.90
31084;DHT22;36333;51.382;0.016;2022-12-18T02:33:07;-1.40;99.90
31084;DHT22;36333;51.382;0.016;2022-12-18T02:35:36;1.40;99.90
31084;DHT22;36333;51.382;0.016;2022-12-18T02:38:06;0.70;99.90
31084;DHT22;36333;51.382;0.016;2022-12-18T02:40:37;0.30;99.90
31084;DHT22;36333;51.382;0.016;2022-12-18T02:43:14;1.60;99.90
31084;DHT22;36333;51.382;0.016;2022-12-18T02:45:47;0.60;99.90
31084;DHT22;36333;51.382;0.016;2022-12-18T02:48:20;0.60;99.90
31084;DHT22;36333;51.382;0.016;2022-12-18T02:53:58;-1.30;99.90
31084;DHT22;36333;51.382;0.016;2022-12-18T02:56:37;0.40;99.90
31084;DHT22;36333;51.382;0.016;2022-12-18T02:59:30;-1.30;99.90
31084;DHT22;36333;51.382;0.016;2022-12-18T03:02:24;-1.60;99.90
31084;DHT22;36333;51.382;0.016;2022-12-18T03:05:05;-2.40;99.90
31084;DHT22;36333;51.382;0.016;2022-12-18T03:07:48;0.70;99.90
31084;DHT22;36333;51.382;0.016;2022-12-18T03:10:27;0.00;99.90
31084;DHT22;36333;51.382;0.016;2022-12-18T03:13:17;-1.40;99.90
31084;DHT22;36333;51.382;0.016;2022-12-18T03:15:50;1.00;99.90
31084;DHT22;36333;51.382;0.016;2022-12-18T03:18:22;-2.00;99.90
31084;DHT22;36333;51.382;0.016;2022-12-18T03:20:54;0.70;99.90
31084;DHT22;36333;51.382;0.016;2022-12-18T03:23:25;0.10;99.90
31084;DHT22;36333;51.382;0.016;2022-12-18T03:25:59;1.10;99.90
31084;DHT22;36333;51.382;0.016;2022-12-18T03:28:39;-1.50;99.90
31084;DHT22;36333;51.382;0.016;2022-12-18T03:31:11;0.80;99.90
31084;DHT22;36333;51.382;0.016;2022-12-18T03:33:53;0.80;99.90
31084;DHT22;36333;51.382;0.016;2022-12-18T03:36:27;-0.70;99.90
31084;DHT22;36333;51.382;0.016;2022-12-18T03:38:55;0.70;99.90
31084;DHT22;36333;51.382;0.016;2022-12-18T03:41:33;-1.50;99.90
31084;DHT22;36333;51.382;0.016;2022-12-18T03:44:28;0.70;99.90
31084;DHT22;36333;51.382;0.016;2022-12-18T03:47:24;0.90;99.90
31084;DHT22;36333;51.382;0.016;2022-12-18T03:50:12;-3.50;99.90
31084;DHT22;36333;51.382;0.016;2022-12-18T03:53:02;-1.30;99.90
31084;DHT22;36333;51.382;0.016;2022-12-18T03:55:39;-1.40;99.90
31084;DHT22;36333;51.382;0.016;2022-12-18T03:58:08;0.60;99.90
31084;DHT22;36333;51.382;0.016;2022-12-18T04:01:00;0.50;99.90
31084;DHT22;36333;51.382;0.016;2022-12-18T04:03:31;1.30;99.90
31084;DHT22;36333;51.382;0.016;2022-12-18T04:06:03;1.30;99.90
31084;DHT22;36333;51.382;0.016;2022-12-18T04:08:33;-1.10;99.90
31084;DHT22;36333;51.382;0.016;2022-12-18T04:11:06;-0.40;99.90
31084;DHT22;36333;51.382;0.016;2022-12-18T04:13:35;1.20;99.90
31084;DHT22;36333;51.382;0.016;2022-12-18T04:16:08;0.80;99.90
31084;DHT22;36333;51.382;0.016;2022-12-18T04:18:43;-2.20;99.90
31084;DHT22;36333;51.382;0.016;2022-12-18T04:21:16;0.50;99.90
31084;DHT22;36333;51.382;0.016;2022-12-18T04:23:44;0.70;99.90
31084;DHT22;36333;51.382;0.016;2022-12-18T04:26:16;1.40;99.90
31084;DHT22;36333;51.382;0.016;2022-12-18T04:29:03;1.10;99.90
31084;DHT22;36333;51.382;0.016;2022-12-18T04:31:32;-1.10;99.90
31084;DHT22;36333;51.382;0.016;2022-12-18T04:34:00;1.20;99.90
31084;DHT22;36333;51.382;0.016;2022-12-18T04:36:28;-0.90;99.90
31084;DHT22;36333;51.382;0.016;2022-12-18T04:38:56;0.80;99.90
31084;DHT22;36333;51.382;0.016;2022-12-18T04:41:23;-0.20;99.90
31084;DHT22;36333;51.382;0.016;2022-12-18T04:43:53;0.80;99.90
31084;DHT22;36333;51.382;0.016;2022-12-18T04:46:20;1.10;99.90
31084;DHT22;36333;51.382;0.016;2022-12-18T04:48:48;-0.60;99.90
31084;DHT22;36333;51.382;0.016;2022-12-18T04:51:16;1.70;99.90
31084;DHT22;36333;51.382;0.016;2022-12-18T04:53:50;1.00;99.90
31084;DHT22;36333;51.382;0.016;2022-12-18T04:56:18;-0.60;99.90
31084;DHT22;36333;51.382;0.016;2022-12-18T04:58:46;-0.60;99.90
31084;DHT22;36333;51.382;0.016;2022-12-18T05:01:17;1.10;99.90
31084;DHT22;36333;51.382;0.016;2022-12-18T05:03:46;-2.30;99.90
31084;DHT22;36333;51.382;0.016;2022-12-18T05:06:13;-0.40;99.90
31084;DHT22;36333;51.382;0.016;2022-12-18T05:08:43;-0.40;99.90
31084;DHT22;36333;51.382;0.016;2022-12-18T05:11:14;1.30;99.90
31084;DHT22;36333;51.382;0.016;2022-12-18T05:13:45;-0.40;99.90
31084;DHT22;36333;51.382;0.016;2022-12-18T05:16:13;2.10;99.90
31084;DHT22;36333;51.382;0.016;2022-12-18T05:18:42;1.50;99.90
31084;DHT22;36333;51.382;0.016;2022-12-18T05:21:10;-0.30;99.90
31084;DHT22;36333;51.382;0.016;2022-12-18T05:23:37;-0.30;99.90
31084;DHT22;36333;51.382;0.016;2022-12-18T05:26:06;1.50;99.90
31084;DHT22;36333;51.382;0.016;2022-12-18T05:28:36;1.30;99.90
31084;DHT22;36333;51.382;0.016;2022-12-18T05:31:04;1.50;99.90
31084;DHT22;36333;51.382;0.016;2022-12-18T05:33:34;-0.50;99.90
31084;DHT22;36333;51.382;0.016;2022-12-18T05:36:04;2.00;99.90
31084;DHT22;36333;51.382;0.016;2022-12-18T05:38:33;-0.10;99.90
31084;DHT22;36333;51.382;0.016;2022-12-18T05:41:01;2.00;99.90
31084;DHT22;36333;51.382;0.016;2022-12-18T05:43:29;-0.30;99.90
31084;DHT22;36333;51.382;0.016;2022-12-18T05:45:57;1.70;99.90
31084;DHT22;36333;51.382;0.016;2022-12-18T05:48:24;2.10;99.90
31084;DHT22;36333;51.382;0.016;2022-12-18T05:50:52;2.10;99.90
31084;DHT22;36333;51.382;0.016;2022-12-18T05:53:20;1.80;99.90
31084;DHT22;36333;51.382;0.016;2022-12-18T05:55:48;0.20;99.90
31084;DHT22;36333;51.382;0.016;2022-12-18T05:58:16;2.30;99.90
31084;DHT22;36333;51.382;0.016;2022-12-18T06:00:46;0.40;99.90
31084;DHT22;36333;51.382;0.016;2022-12-18T06:03:16;0.20;99.90
31084;DHT22;36333;51.382;0.016;2022-12-18T06:05:45;1.60;99.90
31084;DHT22;36333;51.382;0.016;2022-12-18T06:08:13;0.20;99.90
31084;DHT22;36333;51.382;0.016;2022-12-18T06:10:41;2.60;99.90
31084;DHT22;36333;51.382;0.016;2022-12-18T06:13:08;0.20;99.90
31084;DHT22;36333;51.382;0.016;2022-12-18T06:15:37;1.90;99.90
31084;DHT22;36333;51.382;0.016;2022-12-18T06:18:04;1.90;99.90
31084;DHT22;36333;51.382;0.016;2022-12-18T06:20:32;1.70;99.90
31084;DHT22;36333;51.382;0.016;2022-12-18T06:23:00;1.80;99.90
31084;DHT22;36333;51.382;0.016;2022-12-18T06:25:30;2.10;99.90
31084;DHT22;36333;51.382;0.016;2022-12-18T06:27:57;1.20;99.90
31084;DHT22;36333;51.382;0.016;2022-12-18T06:30:26;2.60;99.90
31084;DHT22;36333;51.382;0.016;2022-12-18T06:32:53;0.20;99.90
31084;DHT22;36333;51.382;0.016;2022-12-18T06:35:23;2.10;99.90
31084;DHT22;36333;51.382;0.016;2022-12-18T06:37:51;2.30;99.90
31084;DHT22;36333;51.382;0.016;2022-12-18T06:40:18;1.30;99.90
31084;DHT22;36333;51.382;0.016;2022-12-18T06:42:46;2.60;99.90
31084;DHT22;36333;51.382;0.016;2022-12-18T06:45:15;1.60;99.90
31084;DHT22;36333;51.382;0.016;2022-12-18T06:47:43;0.40;99.90
31084;DHT22;36333;51.382;0.016;2022-12-18T06:50:12;-0.30;99.90
31084;DHT22;36333;51.382;0.016;2022-12-18T06:52:39;0.60;99.90
31084;DHT22;36333;51.382;0.016;2022-12-18T06:55:11;2.00;99.90
31084;DHT22;36333;51.382;0.016;2022-12-18T06:57:38;0.30;99.90
31084;DHT22;36333;51.382;0.016;2022-12-18T07:00:07;1.80;99.90
31084;DHT22;36333;51.382;0.016;2022-12-18T07:02:34;0.40;99.90
31084;DHT22;36333;51.382;0.016;2022-12-18T07:05:03;1.10;99.90
31084;DHT22;36333;51.382;0.016;2022-12-18T07:07:37;0.40;99.90
31084;DHT22;36333;51.382;0.016;2022-12-18T07:10:05;2.10;99.90
31084;DHT22;36333;51.382;0.016;2022-12-18T07:12:32;0.40;99.90
31084;DHT22;36333;51.382;0.016;2022-12-18T07:15:00;0.70;99.90
31084;DHT22;36333;51.382;0.016;2022-12-18T07:17:28;2.90;99.90
31084;DHT22;36333;51.382;0.016;2022-12-18T07:19:56;3.00;99.90
31084;DHT22;36333;51.382;0.016;2022-12-18T07:22:25;2.70;99.90
31084;DHT22;36333;51.382;0.016;2022-12-18T07:24:53;-0.30;99.90
31084;DHT22;36333;51.382;0.016;2022-12-18T07:27:21;2.40;99.90
31084;DHT22;36333;51.382;0.016;2022-12-18T07:29:49;0.60;99.90
31084;DHT22;36333;51.382;0.016;2022-12-18T07:32:22;0.50;99.90
31084;DHT22;36333;51.382;0.016;2022-12-18T07:34:49;2.50;99.90
31084;DHT22;36333;51.382;0.016;2022-12-18T07:37:17;2.70;99.90
31084;DHT22;36333;51.382;0.016;2022-12-18T07:39:45;0.60;99.90
31084;DHT22;36333;51.382;0.016;2022-12-18T07:42:16;2.30;99.90
31084;DHT22;36333;51.382;0.016;2022-12-18T07:44:59;-0.90;99.90
31084;DHT22;36333;51.382;0.016;2022-12-18T07:47:31;0.30;99.90
31084;DHT22;36333;51.382;0.016;2022-12-18T07:50:30;3.50;99.90
31084;DHT22;36333;51.382;0.016;2022-12-18T07:52:58;2.20;99.90
31084;DHT22;36333;51.382;0.016;2022-12-18T07:55:26;0.30;99.90
31084;DHT22;36333;51.382;0.016;2022-12-18T07:57:53;2.70;99.90
31084;DHT22;36333;51.382;0.016;2022-12-18T08:00:27;2.30;99.90
31084;DHT22;36333;51.382;0.016;2022-12-18T08:02:54;2.50;99.90
31084;DHT22;36333;51.382;0.016;2022-12-18T08:05:25;0.90;99.90
31084;DHT22;36333;51.382;0.016;2022-12-18T08:07:53;2.30;99.90
31084;DHT22;36333;51.382;0.016;2022-12-18T08:10:21;0.60;99.90
31084;DHT22;36333;51.382;0.016;2022-12-18T08:12:52;2.60;99.90
31084;DHT22;36333;51.382;0.016;2022-12-18T08:15:20;1.70;99.90
31084;DHT22;36333;51.382;0.016;2022-12-18T08:17:47;1.80;99.90
31084;DHT22;36333;51.382;0.016;2022-12-18T08:20:15;2.20;99.90
31084;DHT22;36333;51.382;0.016;2022-12-18T08:22:44;0.60;99.90
31084;DHT22;36333;51.382;0.016;2022-12-18T08:25:12;2.60;99.90
31084;DHT22;36333;51.382;0.016;2022-12-18T08:27:43;3.30;99.90
31084;DHT22;36333;51.382;0.016;2022-12-18T08:30:11;1.90;99.90
31084;DHT22;36333;51.382;0.016;2022-12-18T08:32:39;0.70;99.90
31084;DHT22;36333;51.382;0.016;2022-12-18T08:35:08;2.30;99.90
31084;DHT22;36333;51.382;0.016;2022-12-18T08:37:39;0.70;99.90
31084;DHT22;36333;51.382;0.016;2022-12-18T08:40:12;0.10;99.90
31084;DHT22;36333;51.382;0.016;2022-12-18T08:42:40;0.00;99.90
31084;DHT22;36333;51.382;0.016;2022-12-18T08:45:28;2.20;99.90
31084;DHT22;36333;51.382;0.016;2022-12-18T08:47:55;1.00;99.90
31084;DHT22;36333;51.382;0.016;2022-12-18T08:50:23;3.40;99.90
31084;DHT22;36333;51.382;0.016;2022-12-18T08:52:51;2.30;99.90
31084;DHT22;36333;51.382;0.016;2022-12-18T08:55:18;2.90;99.90
31084;DHT22;36333;51.382;0.016;2022-12-18T08:57:50;1.00;99.90
31084;DHT22;36333;51.382;0.016;2022-12-18T09:00:18;3.30;99.90
31084;DHT22;36333;51.382;0.016;2022-12-18T09:02:45;0.80;99.90
31084;DHT22;36333;51.382;0.016;2022-12-18T09:05:16;2.90;99.90
31084;DHT22;36333;51.382;0.016;2022-12-18T09:07:44;2.10;99.90
31084;DHT22;36333;51.382;0.016;2022-12-18T09:10:12;3.40;99.90
31084;DHT22;36333;51.382;0.016;2022-12-18T09:12:39;0.80;99.90
31084;DHT22;36333;51.382;0.016;2022-12-18T09:15:10;3.10;99.90
31084;DHT22;36333;51.382;0.016;2022-12-18T09:17:40;1.30;99.90
31084;DHT22;36333;51.382;0.016;2022-12-18T09:20:08;3.10;99.90
31084;DHT22;36333;51.382;0.016;2022-12-18T09:22:39;0.90;99.90
31084;DHT22;36333;51.382;0.016;2022-12-18T09:25:07;2.90;99.90
31084;DHT22;36333;51.382;0.016;2022-12-18T09:27:37;0.90;99.90
31084;DHT22;36333;51.382;0.016;2022-12-18T09:30:08;0.90;99.90
31084;DHT22;36333;51.382;0.016;2022-12-18T09:32:35;1.20;99.90
31084;DHT22;36333;51.382;0.016;2022-12-18T09:35:06;2.20;99.90
31084;DHT22;36333;51.382;0.016;2022-12-18T09:37:36;1.10;99.90
31084;DHT22;36333;51.382;0.016;2022-12-18T09:40:04;3.20;99.90
31084;DHT22;36333;51.382;0.016;2022-12-18T09:42:32;1.10;99.90
31084;DHT22;36333;51.382;0.016;2022-12-18T09:45:00;1.20;99.90
31084;DHT22;36333;51.382;0.016;2022-12-18T09:47:36;3.10;99.90
31084;DHT22;36333;51.382;0.016;2022-12-18T09:50:26;3.10;99.90
31084;DHT22;36333;51.382;0.016;2022-12-18T09:52:59;1.20;99.90
31084;DHT22;36333;51.382;0.016;2022-12-18T09:55:45;2.80;99.90
31084;DHT22;36333;51.382;0.016;2022-12-18T10:01:09;1.30;99.90
31084;DHT22;36333;51.382;0.016;2022-12-18T10:03:44;2.80;99.90
31084;DHT22;36333;51.382;0.016;2022-12-18T10:06:43;2.90;99.90
31084;DHT22;36333;51.382;0.016;2022-12-18T10:20:48;1.10;99.90
31084;DHT22;36333;51.382;0.016;2022-12-18T10:23:26;1.30;99.90
31084;DHT22;36333;51.382;0.016;2022-12-18T10:26:07;1.30;99.90
31084;DHT22;36333;51.382;0.016;2022-12-18T10:28:37;3.20;99.90
31084;DHT22;36333;51.382;0.016;2022-12-18T10:31:10;3.50;99.90
31084;DHT22;36333;51.382;0.016;2022-12-18T10:33:40;1.40;99.90
31084;DHT22;36333;51.382;0.016;2022-12-18T10:36:08;3.20;99.90
31084;DHT22;36333;51.382;0.016;2022-12-18T10:38:36;1.60;99.90
31084;DHT22;36333;51.382;0.016;2022-12-18T10:41:08;3.00;99.90
31084;DHT22;36333;51.382;0.016;2022-12-18T10:44:22;1.70;99.90
31084;DHT22;36333;51.382;0.016;2022-12-18T10:46:54;1.50;99.90
31084;DHT22;36333;51.382;0.016;2022-12-18T10:49:26;3.50;99.90
31084;DHT22;36333;51.382;0.016;2022-12-18T10:52:15;1.70;99.90
31084;DHT22;36333;51.382;0.016;2022-12-18T10:54:54;1.60;99.90
31084;DHT22;36333;51.382;0.016;2022-12-18T10:57:38;0.30;99.90
31084;DHT22;36333;51.382;0.016;2022-12-18T11:00:27;3.70;99.90
31084;DHT22;36333;51.382;0.016;2022-12-18T11:02:59;1.80;99.90
31084;DHT22;36333;51.382;0.016;2022-12-18T11:07:59;1.20;99.90
31084;DHT22;36333;51.382;0.016;2022-12-18T11:10:34;4.00;99.90
31084;DHT22;36333;51.382;0.016;2022-12-18T11:13:35;3.50;99.90
31084;DHT22;36333;51.382;0.016;2022-12-18T11:16:20;3.60;99.90
31084;DHT22;36333;51.382;0.016;2022-12-18T11:18:53;3.90;99.90
31084;DHT22;36333;51.382;0.016;2022-12-18T11:25:33;0.40;99.90
31084;DHT22;36333;51.382;0.016;2022-12-18T11:37:32;2.00;99.90
31084;DHT22;36333;51.382;0.016;2022-12-18T11:40:35;3.60;99.90
31084;DHT22;36333;51.382;0.016;2022-12-18T11:43:53;2.20;99.90
31084;DHT22;36333;51.382;0.016;2022-12-18T11:46:47;2.10;99.90
31084;DHT22;36333;51.382;0.016;2022-12-18T11:54:00;4.90;99.90
31084;DHT22;36333;51.382;0.016;2022-12-18T11:57:03;0.10;99.90
31084;DHT22;36333;51.382;0.016;2022-12-18T12:38:43;2.40;99.90
31084;DHT22;36333;51.382;0.016;2022-12-18T12:41:22;2.50;99.90
31084;DHT22;36333;51.382;0.016;2022-12-18T12:44:35;0.40;99.90
31084;DHT22;36333;51.382;0.016;2022-12-18T12:47:16;1.20;99.90
31084;DHT22;36333;51.382;0.016;2022-12-18T12:49:51;1.20;99.90
31084;DHT22;36333;51.382;0.016;2022-12-18T12:52:33;2.50;99.90
31084;DHT22;36333;51.382;0.016;2022-12-18T12:55:07;4.30;99.90
31084;DHT22;36333;51.382;0.016;2022-12-18T13:04:24;4.50;99.90
31084;DHT22;36333;51.382;0.016;2022-12-18T13:08:11;2.30;99.90
31084;DHT22;36333;51.382;0.016;2022-12-18T13:10:50;4.50;99.90
31084;DHT22;36333;51.382;0.016;2022-12-18T13:13:50;3.40;99.90
31084;DHT22;36333;51.382;0.016;2022-12-18T13:16:21;2.40;99.90
31084;DHT22;36333;51.382;0.016;2022-12-18T13:18:54;2.50;99.90
31084;DHT22;36333;51.382;0.016;2022-12-18T13:21:28;3.60;99.90
31084;DHT22;36333;51.382;0.016;2022-12-18T13:23:56;4.50;99.90
31084;DHT22;36333;51.382;0.016;2022-12-18T13:28:57;2.80;99.90
31084;DHT22;36333;51.382;0.016;2022-12-18T13:37:58;2.70;99.90
31084;DHT22;36333;51.382;0.016;2022-12-18T13:46:17;4.80;99.90
31084;DHT22;36333;51.382;0.016;2022-12-18T13:49:01;2.50;99.90
31084;DHT22;36333;51.382;0.016;2022-12-18T13:51:32;2.50;99.90
31084;DHT22;36333;51.382;0.016;2022-12-18T13:54:02;4.90;99.90
31084;DHT22;36333;51.382;0.016;2022-12-18T13:56:33;2.60;99.90
31084;DHT22;36333;51.382;0.016;2022-12-18T14:01:54;2.60;99.90
31084;DHT22;36333;51.382;0.016;2022-12-18T14:04:34;2.60;99.90
31084;DHT22;36333;51.382;0.016;2022-12-18T14:07:13;3.50;99.90
31084;DHT22;36333;51.382;0.016;2022-12-18T14:09:48;2.60;99.90
31084;DHT22;36333;51.382;0.016;2022-12-18T14:12:20;2.60;99.90
31084;DHT22;36333;51.382;0.016;2022-12-18T14:17:58;4.70;99.90
31084;DHT22;36333;51.382;0.016;2022-12-18T14:20:29;4.70;99.90
31084;DHT22;36333;51.382;0.016;2022-12-18T14:22:58;3.90;99.90
31084;DHT22;36333;51.382;0.016;2022-12-18T14:25:29;2.50;99.90
31084;DHT22;36333;51.382;0.016;2022-12-18T14:30:38;5.00;99.90
31084;DHT22;36333;51.382;0.016;2022-12-18T14:38:29;4.50;99.90
31084;DHT22;36333;51.382;0.016;2022-12-18T14:40:59;2.50;99.90
31084;DHT22;36333;51.382;0.016;2022-12-18T14:43:28;2.80;99.90
31084;DHT22;36333;51.382;0.016;2022-12-18T14:45:56;2.50;99.90
31084;DHT22;36333;51.382;0.016;2022-12-18T14:48:38;2.80;99.90
31084;DHT22;36333;51.382;0.016;2022-12-18T14:54:03;5.00;99.90
31084;DHT22;36333;51.382;0.016;2022-12-18T14:56:36;4.90;99.90
31084;DHT22;36333;51.382;0.016;2022-12-18T14:59:15;3.80;99.90
31084;DHT22;36333;51.382;0.016;2022-12-18T15:04:47;2.90;99.90
31084;DHT22;36333;51.382;0.016;2022-12-18T15:07:22;3.00;99.90
31084;DHT22;36333;51.382;0.016;2022-12-18T15:12:49;3.00;99.90
31084;DHT22;36333;51.382;0.016;2022-12-18T15:18:16;4.00;99.90
31084;DHT22;36333;51.382;0.016;2022-12-18T15:20:45;5.40;99.90
31084;DHT22;36333;51.382;0.016;2022-12-18T15:26:00;3.00;99.90
31084;DHT22;36333;51.382;0.016;2022-12-18T15:28:35;3.10;99.90
31084;DHT22;36333;51.382;0.016;2022-12-18T15:36:34;3.20;99.90
31084;DHT22;36333;51.382;0.016;2022-12-18T15:39:04;4.70;99.90
31084;DHT22;36333;51.382;0.016;2022-12-18T15:41:35;3.40;99.90
31084;DHT22;36333;51.382;0.016;2022-12-18T15:44:22;3.20;99.90
31084;DHT22;36333;51.382;0.016;2022-12-18T15:46:50;3.30;99.90
31084;DHT22;36333;51.382;0.016;2022-12-18T15:49:18;3.20;99.90
31084;DHT22;36333;51.382;0.016;2022-12-18T15:51:52;5.50;99.90
31084;DHT22;36333;51.382;0.016;2022-12-18T15:54:20;3.30;99.90
31084;DHT22;36333;51.382;0.016;2022-12-18T15:57:26;4.70;99.90
31084;DHT22;36333;51.382;0.016;2022-12-18T15:59:55;3.70;99.90
31084;DHT22;36333;51.382;0.016;2022-12-18T16:02:26;3.40;99.90
31084;DHT22;36333;51.382;0.016;2022-12-18T16:04:56;3.50;99.90
31084;DHT22;36333;51.382;0.016;2022-12-18T16:07:23;3.50;99.90
31084;DHT22;36333;51.382;0.016;2022-12-18T16:09:56;4.60;99.90
31084;DHT22;36333;51.382;0.016;2022-12-18T16:12:26;3.80;99.90
31084;DHT22;36333;51.382;0.016;2022-12-18T16:14:54;6.00;99.90
31084;DHT22;36333;51.382;0.016;2022-12-18T16:17:21;3.60;99.90
31084;DHT22;36333;51.382;0.016;2022-12-18T16:19:49;5.20;99.90
31084;DHT22;36333;51.382;0.016;2022-12-18T16:22:20;3.80;99.90
31084;DHT22;36333;51.382;0.016;2022-12-18T16:24:49;4.80;99.90
31084;DHT22;36333;51.382;0.016;2022-12-18T16:27:19;3.90;99.90
31084;DHT22;36333;51.382;0.016;2022-12-18T16:29:47;4.60;99.90
31084;DHT22;36333;51.382;0.016;2022-12-18T16:32:18;4.10;99.90
31084;DHT22;36333;51.382;0.016;2022-12-18T16:34:46;4.10;99.90
31084;DHT22;36333;51.382;0.016;2022-12-18T16:37:16;4.10;99.90
31084;DHT22;36333;51.382;0.016;2022-12-18T16:39:44;5.40;99.90
31084;DHT22;36333;51.382;0.016;2022-12-18T16:42:17;5.30;99.90
31084;DHT22;36333;51.382;0.016;2022-12-18T16:44:48;4.10;99.90
31084;DHT22;36333;51.382;0.016;2022-12-18T16:47:16;6.00;99.90
31084;DHT22;36333;51.382;0.016;2022-12-18T16:49:44;4.30;99.90
31084;DHT22;36333;51.382;0.016;2022-12-18T16:52:13;3.70;99.90
31084;DHT22;36333;51.382;0.016;2022-12-18T16:54:40;4.70;99.90
31084;DHT22;36333;51.382;0.016;2022-12-18T16:57:12;4.50;99.90
31084;DHT22;36333;51.382;0.016;2022-12-18T16:59:40;5.40;99.90
31084;DHT22;36333;51.382;0.016;2022-12-18T17:02:22;4.50;99.90
31084;DHT22;36333;51.382;0.016;2022-12-18T17:04:56;4.50;99.90
31084;DHT22;36333;51.382;0.016;2022-12-18T17:07:25;6.80;99.90
31084;DHT22;36333;51.382;0.016;2022-12-18T17:09:54;6.90;99.90
31084;DHT22;36333;51.382;0.016;2022-12-18T17:12:22;6.90;99.90
31084;DHT22;36333;51.382;0.016;2022-12-18T17:14:49;7.30;99.90
31084;DHT22;36333;51.382;0.016;2022-12-18T17:17:17;6.90;99.90
31084;DHT22;36333;51.382;0.016;2022-12-18T17:19:48;4.70;99.90
31084;DHT22;36333;51.382;0.016;2022-12-18T17:22:15;7.10;99.90
31084;DHT22;36333;51.382;0.016;2022-12-18T17:24:46;4.80;99.90
31084;DHT22;36333;51.382;0.016;2022-12-18T17:27:14;4.80;99.90
31084;DHT22;36333;51.382;0.016;2022-12-18T17:29:44;6.10;99.90
31084;DHT22;36333;51.382;0.016;2022-12-18T17:32:16;5.00;99.90
31084;DHT22;36333;51.382;0.016;2022-12-18T17:34:45;6.00;99.90
31084;DHT22;36333;51.382;0.016;2022-12-18T17:37:15;7.40;99.90
31084;DHT22;36333;51.382;0.016;2022-12-18T17:39:43;6.40;99.90
31084;DHT22;36333;51.382;0.016;2022-12-18T17:42:11;6.20;99.90
31084;DHT22;36333;51.382;0.016;2022-12-18T17:44:43;5.00;99.90
31084;DHT22;36333;51.382;0.016;2022-12-18T17:47:11;5.10;99.90
31084;DHT22;36333;51.382;0.016;2022-12-18T17:49:39;5.10;99.90
31084;DHT22;36333;51.382;0.016;2022-12-18T17:52:07;5.10;99.90
31084;DHT22;36333;51.382;0.016;2022-12-18T17:54:36;7.40;99.90
31084;DHT22;36333;51.382;0.016;2022-12-18T17:57:06;5.20;99.90
31084;DHT22;36333;51.382;0.016;2022-12-18T17:59:36;7.10;99.90
31084;DHT22;36333;51.382;0.016;2022-12-18T18:02:09;5.30;99.90
31084;DHT22;36333;51.382;0.016;2022-12-18T18:04:38;7.30;99.90
31084;DHT22;36333;51.382;0.016;2022-12-18T18:07:06;6.40;99.90
31084;DHT22;36333;51.382;0.016;2022-12-18T18:09:34;5.40;99.90
31084;DHT22;36333;51.382;0.016;2022-12-18T18:12:01;5.40;99.90
31084;DHT22;36333;51.382;0.016;2022-12-18T18:14:47;5.50;99.90
31084;DHT22;36333;51.382;0.016;2022-12-18T18:17:15;6.30;99.90
31084;DHT22;36333;51.382;0.016;2022-12-18T18:19:43;5.50;99.90
31084;DHT22;36333;51.382;0.016;2022-12-18T18:22:16;5.50;99.90
31084;DHT22;36333;51.382;0.016;2022-12-18T18:24:45;7.60;99.90
31084;DHT22;36333;51.382;0.016;2022-12-18T18:27:13;7.50;99.90
31084;DHT22;36333;51.382;0.016;2022-12-18T18:29:41;5.60;99.90
31084;DHT22;36333;51.382;0.016;2022-12-18T18:32:08;5.60;99.90
31084;DHT22;36333;51.382;0.016;2022-12-18T18:34:42;5.60;99.90
31084;DHT22;36333;51.382;0.016;2022-12-18T18:37:09;5.50;99.90
31084;DHT22;36333;51.382;0.016;2022-12-18T18:39:38;6.80;99.90
31084;DHT22;36333;51.382;0.016;2022-12-18T18:42:06;5.70;99.90